sensor_id;sensor_type;location;lat;lon;timestamp;temperature;humidity
11619;DHT22;5865;48.776;9.280;2024-02-04T01:51:18;7.50;99.90
11619;DHT22;5865;48.776;9.280;2024-02-04T02:18:39;7.80;99.90
11619;DHT22;5865;48.776;9.280;2024-02-04T02:43:43;7.70;99.90
11619;DHT22;5865;48.776;9.280;2024-02-04T03:28:03;7.60;99.90
11619;DHT22;5865;48.776;9.280;2024-02-04T05:04:16;7.30;99.90
11619;DHT22;5865;48.776;9.280;2024-02-04T10:48:34;11.20;99.90
11619;DHT22;5865;48.776;9.280;2024-02-04T11:29:13;13.90;99.90
11619;DHT22;5865;48.776;9.280;2024-02-04T12:01:28;12.90;99.90
11619;DHT22;5865;48.776;9.280;2024-02-04T15:36:09;10.80;99.90
11619;DHT22;5865;48.776;9.280;2024-02-04T15:38:37;10.70;99.90
11619;DHT22;5865;48.776;9.280;2024-02-04T15:41:06;10.80;99.90
11619;DHT22;5865;48.776;9.280;2024-02-04T15:43:33;10.80;99.90
11619;DHT22;5865;48.776;9.280;2024-02-04T15:46:06;10.70;99.90
11619;DHT22;5865;48.776;9.280;2024-02-04T15:48:38;10.70;99.90
11619;DHT22;5865;48.776;9.280;2024-02-04T15:51:05;10.70;99.90
11619;DHT22;5865;48.776;9.280;2024-02-04T15:53:33;10.70;99.90
11619;DHT22;5865;48.776;9.280;2024-02-04T15:56:04;10.60;99.90
11619;DHT22;5865;48.776;9.280;2024-02-04T15:58:36;10.50;99.90
11619;DHT22;5865;48.776;9.280;2024-02-04T16:01:08;10.50;99.90
11619;DHT22;5865;48.776;9.280;2024-02-04T16:03:38;10.40;99.90
11619;DHT22;5865;48.776;9.280;2024-02-04T16:06:06;10.40;99.90
11619;DHT22;5865;48.776;9.280;2024-02-04T16:08:34;10.40;99.90
11619;DHT22;5865;48.776;9.280;2024-02-04T16:11:05;10.40;99.90
11619;DHT22;5865;48.776;9.280;2024-02-04T16:13:34;10.40;99.90
11619;DHT22;5865;48.776;9.280;2024-02-04T16:16:03;10.40;99.90
11619;DHT22;5865;48.776;9.280;2024-02-04T16:18:32;10.40;99.90
11619;DHT22;5865;48.776;9.280;2024-02-04T16:20:59;10.30;99.90
11619;DHT22;5865;48.776;9.280;2024-02-04T16:23:26;10.20;99.90
11619;DHT22;5865;48.776;9.280;2024-02-04T16:30:50;10.10;99.90
11619;DHT22;5865;48.776;9.280;2024-02-04T16:33:17;10.00;99.90
11619;DHT22;5865;48.776;9.280;2024-02-04T16:35:44;10.10;99.90
11619;DHT22;5865;48.776;9.280;2024-02-04T16:38:11;10.10;99.90
11619;DHT22;5865;48.776;9.280;2024-02-04T16:40:38;10.00;99.90
11619;DHT22;5865;48.776;9.280;2024-02-04T16:43:06;9.90;99.90
11619;DHT22;5865;48.776;9.280;2024-02-04T16:45:33;10.00;99.90
11619;DHT22;5865;48.776;9.280;2024-02-04T16:48:02;9.90;99.90
11619;DHT22;5865;48.776;9.280;2024-02-04T16:50:32;9.80;99.90
11619;DHT22;5865;48.776;9.280;2024-02-04T17:03:32;9.70;99.90
11619;DHT22;5865;48.776;9.280;2024-02-04T17:06:01;9.70;99.90
11619;DHT22;5865;48.776;9.280;2024-02-04T17:08:28;9.70;99.90
11619;DHT22;5865;48.776;9.280;2024-02-04T17:10:56;9.70;99.90
11619;DHT22;5865;48.776;9.280;2024-02-04T17:13:23;9.70;99.90
11619;DHT22;5865;48.776;9.280;2024-02-04T17:15:51;9.70;99.90
11619;DHT22;5865;48.776;9.280;2024-02-04T17:18:26;9.70;99.90
11619;DHT22;5865;48.776;9.280;2024-02-04T17:21:00;9.60;99.90
11619;DHT22;5865;48.776;9.280;2024-02-04T17:23:30;9.60;99.90
11619;DHT22;5865;48.776;9.280;2024-02-04T17:26:01;9.50;99.90
11619;DHT22;5865;48.776;9.280;2024-02-04T17:28:29;9.40;99.90
11619;DHT22;5865;48.776;9.280;2024-02-04T17:30:56;9.20;99.90
11619;DHT22;5865;48.776;9.280;2024-02-04T17:33:25;9.10;99.90
11619;DHT22;5865;48.776;9.280;2024-02-04T17:35:52;9.10;99.90
11619;DHT22;5865;48.776;9.280;2024-02-04T17:38:20;9.10;99.90
11619;DHT22;5865;48.776;9.280;2024-02-04T17:40:47;9.00;99.90
11619;DHT22;5865;48.776;9.280;2024-02-04T17:43:15;8.90;99.90
11619;DHT22;5865;48.776;9.280;2024-02-04T17:45:42;8.70;99.90
11619;DHT22;5865;48.776;9.280;2024-02-04T17:48:08;8.60;99.90
11619;DHT22;5865;48.776;9.280;2024-02-04T17:50:35;8.40;99.90
11619;DHT22;5865;48.776;9.280;2024-02-04T17:53:03;8.40;99.90
11619;DHT22;5865;48.776;9.280;2024-02-04T17:55:33;8.50;99.90
11619;DHT22;5865;48.776;9.280;2024-02-04T17:58:01;8.40;99.90
11619;DHT22;5865;48.776;9.280;2024-02-04T18:00:29;8.20;99.90
11619;DHT22;5865;48.776;9.280;2024-02-04T18:05:23;8.10;99.90
11619;DHT22;5865;48.776;9.280;2024-02-04T18:07:50;7.90;99.90
11619;DHT22;5865;48.776;9.280;2024-02-04T18:10:19;7.70;99.90
11619;DHT22;5865;48.776;9.280;2024-02-04T18:12:48;7.60;99.90
11619;DHT22;5865;48.776;9.280;2024-02-04T18:15:15;7.50;99.90
11619;DHT22;5865;48.776;9.280;2024-02-04T18:17:43;7.40;99.90
11619;DHT22;5865;48.776;9.280;2024-02-04T18:20:11;7.40;99.90
11619;DHT22;5865;48.776;9.280;2024-02-04T18:22:38;7.40;99.90
11619;DHT22;5865;48.776;9.280;2024-02-04T18:25:05;7.40;99.90
11619;DHT22;5865;48.776;9.280;2024-02-04T18:27:36;7.40;99.90
11619;DHT22;5865;48.776;9.280;2024-02-04T18:30:08;7.30;99.90
11619;DHT22;5865;48.776;9.280;2024-02-04T18:32:36;7.30;99.90
11619;DHT22;5865;48.776;9.280;2024-02-04T18:35:03;7.30;99.90
11619;DHT22;5865;48.776;9.280;2024-02-04T18:37:30;7.20;99.90
11619;DHT22;5865;48.776;9.280;2024-02-04T18:39:58;7.10;99.90
11619;DHT22;5865;48.776;9.280;2024-02-04T18:42:26;7.10;99.90
11619;DHT22;5865;48.776;9.280;2024-02-04T18:44:53;7.10;99.90
11619;DHT22;5865;48.776;9.280;2024-02-04T18:47:22;7.10;99.90
11619;DHT22;5865;48.776;9.280;2024-02-04T18:49:50;7.10;99.90
11619;DHT22;5865;48.776;9.280;2024-02-04T18:52:20;7.00;99.90
11619;DHT22;5865;48.776;9.280;2024-02-04T18:54:47;6.90;99.90
11619;DHT22;5865;48.776;9.280;2024-02-04T18:57:14;7.00;99.90
11619;DHT22;5865;48.776;9.280;2024-02-04T18:59:41;7.10;99.90
11619;DHT22;5865;48.776;9.280;2024-02-04T19:02:08;7.30;99.90
11619;DHT22;5865;48.776;9.280;2024-02-04T19:04:36;7.50;99.90
11619;DHT22;5865;48.776;9.280;2024-02-04T19:07:03;7.50;99.90
11619;DHT22;5865;48.776;9.280;2024-02-04T19:09:31;7.70;99.90
11619;DHT22;5865;48.776;9.280;2024-02-04T19:14:25;7.90;99.90
11619;DHT22;5865;48.776;9.280;2024-02-04T19:16:52;8.00;99.90
11619;DHT22;5865;48.776;9.280;2024-02-04T19:19:19;8.20;99.90
11619;DHT22;5865;48.776;9.280;2024-02-04T19:21:48;8.20;99.90
11619;DHT22;5865;48.776;9.280;2024-02-04T19:24:15;8.30;99.90
11619;DHT22;5865;48.776;9.280;2024-02-04T19:26:43;8.30;99.90
11619;DHT22;5865;48.776;9.280;2024-02-04T19:29:12;8.30;99.90
11619;DHT22;5865;48.776;9.280;2024-02-04T21:46:00;7.90;99.90
